sensor_id;sensor_type;location;lat;lon;timestamp;P1;durP1;ratioP1;P2;durP2;ratioP2
46322;SDS011;32044;52.386;13.278;2023-09-19T00:00:19;4.82;;;2.80;;
46322;SDS011;32044;52.386;13.278;2023-09-19T00:02:51;4.82;;;2.38;;
46322;SDS011;32044;52.386;13.278;2023-09-19T00:05:20;7.50;;;3.00;;
46322;SDS011;32044;52.386;13.278;2023-09-19T00:07:50;10.20;;;3.05;;
46322;SDS011;32044;52.386;13.278;2023-09-19T00:10:20;5.10;;;2.90;;
46322;SDS011;32044;52.386;13.278;2023-09-19T00:12:50;4.47;;;2.85;;
46322;SDS011;32044;52.386;13.278;2023-09-19T00:15:20;6.20;;;2.70;;
46322;SDS011;32044;52.386;13.278;2023-09-19T00:17:48;6.47;;;2.67;;
46322;SDS011;32044;52.386;13.278;2023-09-19T00:20:18;4.90;;;2.95;;
46322;SDS011;32044;52.386;13.278;2023-09-19T00:22:49;5.63;;;2.88;;
46322;SDS011;32044;52.386;13.278;2023-09-19T00:25:18;6.53;;;2.50;;
46322;SDS011;32044;52.386;13.278;2023-09-19T00:27:46;3.80;;;2.60;;
46322;SDS011;32044;52.386;13.278;2023-09-19T00:30:14;6.18;;;2.40;;
46322;SDS011;32044;52.386;13.278;2023-09-19T00:32:44;5.40;;;2.50;;
46322;SDS011;32044;52.386;13.278;2023-09-19T00:35:13;4.20;;;2.35;;
46322;SDS011;32044;52.386;13.278;2023-09-19T00:37:41;4.97;;;2.80;;
46322;SDS011;32044;52.386;13.278;2023-09-19T00:40:09;5.55;;;2.95;;
46322;SDS011;32044;52.386;13.278;2023-09-19T00:42:38;8.65;;;2.95;;
46322;SDS011;32044;52.386;13.278;2023-09-19T00:45:07;3.60;;;2.60;;
46322;SDS011;32044;52.386;13.278;2023-09-19T00:47:37;5.90;;;2.72;;
46322;SDS011;32044;52.386;13.278;2023-09-19T00:50:07;6.53;;;2.70;;
46322;SDS011;32044;52.386;13.278;2023-09-19T00:52:37;5.50;;;2.53;;
46322;SDS011;32044;52.386;13.278;2023-09-19T00:55:06;5.10;;;2.90;;
46322;SDS011;32044;52.386;13.278;2023-09-19T00:57:34;9.13;;;3.25;;
46322;SDS011;32044;52.386;13.278;2023-09-19T01:00:04;4.03;;;2.65;;
46322;SDS011;32044;52.386;13.278;2023-09-19T01:02:33;9.07;;;2.88;;
46322;SDS011;32044;52.386;13.278;2023-09-19T01:05:01;7.28;;;2.92;;
46322;SDS011;32044;52.386;13.278;2023-09-19T01:07:32;4.28;;;3.10;;
46322;SDS011;32044;52.386;13.278;2023-09-19T01:10:00;5.50;;;2.80;;
46322;SDS011;32044;52.386;13.278;2023-09-19T01:12:33;5.38;;;3.10;;
46322;SDS011;32044;52.386;13.278;2023-09-19T01:15:10;5.22;;;2.45;;
46322;SDS011;32044;52.386;13.278;2023-09-19T01:17:42;4.22;;;2.70;;
46322;SDS011;32044;52.386;13.278;2023-09-19T01:20:19;6.95;;;2.88;;
46322;SDS011;32044;52.386;13.278;2023-09-19T01:22:56;5.40;;;2.72;;
46322;SDS011;32044;52.386;13.278;2023-09-19T01:25:42;9.00;;;3.05;;
46322;SDS011;32044;52.386;13.278;2023-09-19T01:28:29;3.80;;;2.58;;
46322;SDS011;32044;52.386;13.278;2023-09-19T01:31:06;4.18;;;2.70;;
46322;SDS011;32044;52.386;13.278;2023-09-19T01:33:55;4.45;;;2.25;;
46322;SDS011;32044;52.386;13.278;2023-09-19T01:36:29;5.38;;;2.78;;
46322;SDS011;32044;52.386;13.278;2023-09-19T01:39:00;7.28;;;2.83;;
46322;SDS011;32044;52.386;13.278;2023-09-19T01:41:40;4.03;;;2.30;;
46322;SDS011;32044;52.386;13.278;2023-09-19T01:44:14;4.93;;;2.30;;
46322;SDS011;32044;52.386;13.278;2023-09-19T01:46:46;4.85;;;2.45;;
46322;SDS011;32044;52.386;13.278;2023-09-19T01:49:17;5.30;;;2.38;;
46322;SDS011;32044;52.386;13.278;2023-09-19T01:51:51;5.47;;;2.67;;
46322;SDS011;32044;52.386;13.278;2023-09-19T01:54:24;6.78;;;2.67;;
46322;SDS011;32044;52.386;13.278;2023-09-19T01:56:57;6.00;;;2.40;;
46322;SDS011;32044;52.386;13.278;2023-09-19T01:59:32;3.92;;;2.45;;
46322;SDS011;32044;52.386;13.278;2023-09-19T02:02:04;5.40;;;2.30;;
46322;SDS011;32044;52.386;13.278;2023-09-19T02:04:33;3.58;;;2.42;;
46322;SDS011;32044;52.386;13.278;2023-09-19T02:07:01;3.03;;;2.38;;
46322;SDS011;32044;52.386;13.278;2023-09-19T02:09:32;6.05;;;2.75;;
46322;SDS011;32044;52.386;13.278;2023-09-19T02:12:01;5.40;;;2.53;;
46322;SDS011;32044;52.386;13.278;2023-09-19T02:14:30;3.28;;;2.30;;
46322;SDS011;32044;52.386;13.278;2023-09-19T02:16:58;3.22;;;2.47;;
46322;SDS011;32044;52.386;13.278;2023-09-19T02:19:28;8.82;;;3.17;;
46322;SDS011;32044;52.386;13.278;2023-09-19T02:21:56;4.35;;;2.90;;
46322;SDS011;32044;52.386;13.278;2023-09-19T02:24:23;5.30;;;2.55;;
46322;SDS011;32044;52.386;13.278;2023-09-19T02:26:53;5.75;;;2.65;;
46322;SDS011;32044;52.386;13.278;2023-09-19T02:29:22;6.43;;;2.42;;
46322;SDS011;32044;52.386;13.278;2023-09-19T02:31:49;6.85;;;2.45;;
46322;SDS011;32044;52.386;13.278;2023-09-19T02:34:17;3.67;;;2.35;;
46322;SDS011;32044;52.386;13.278;2023-09-19T02:36:46;4.18;;;2.10;;
46322;SDS011;32044;52.386;13.278;2023-09-19T02:39:14;5.07;;;3.00;;
46322;SDS011;32044;52.386;13.278;2023-09-19T02:41:41;6.25;;;2.33;;
46322;SDS011;32044;52.386;13.278;2023-09-19T02:44:09;5.85;;;2.70;;
46322;SDS011;32044;52.386;13.278;2023-09-19T02:46:36;4.00;;;2.35;;
46322;SDS011;32044;52.386;13.278;2023-09-19T02:49:04;4.13;;;2.40;;
46322;SDS011;32044;52.386;13.278;2023-09-19T02:51:32;6.43;;;2.53;;
46322;SDS011;32044;52.386;13.278;2023-09-19T02:54:01;4.45;;;2.30;;
46322;SDS011;32044;52.386;13.278;2023-09-19T02:56:30;3.88;;;2.22;;
46322;SDS011;32044;52.386;13.278;2023-09-19T02:58:58;6.22;;;2.70;;
46322;SDS011;32044;52.386;13.278;2023-09-19T03:01:26;2.63;;;1.85;;
46322;SDS011;32044;52.386;13.278;2023-09-19T03:03:54;4.07;;;2.38;;
46322;SDS011;32044;52.386;13.278;2023-09-19T03:06:22;5.57;;;2.97;;
46322;SDS011;32044;52.386;13.278;2023-09-19T03:08:50;4.68;;;2.60;;
46322;SDS011;32044;52.386;13.278;2023-09-19T03:11:19;4.57;;;2.45;;
46322;SDS011;32044;52.386;13.278;2023-09-19T03:13:52;5.15;;;2.05;;
46322;SDS011;32044;52.386;13.278;2023-09-19T03:16:20;5.43;;;2.40;;
46322;SDS011;32044;52.386;13.278;2023-09-19T03:18:48;4.43;;;2.53;;
46322;SDS011;32044;52.386;13.278;2023-09-19T03:21:16;5.43;;;2.65;;
46322;SDS011;32044;52.386;13.278;2023-09-19T03:23:45;6.28;;;2.50;;
46322;SDS011;32044;52.386;13.278;2023-09-19T03:26:13;5.35;;;2.40;;
46322;SDS011;32044;52.386;13.278;2023-09-19T03:28:43;5.10;;;2.67;;
46322;SDS011;32044;52.386;13.278;2023-09-19T03:31:12;5.25;;;2.58;;
46322;SDS011;32044;52.386;13.278;2023-09-19T03:33:40;3.42;;;2.33;;
46322;SDS011;32044;52.386;13.278;2023-09-19T03:36:08;3.20;;;2.17;;
46322;SDS011;32044;52.386;13.278;2023-09-19T03:38:35;8.65;;;2.75;;
46322;SDS011;32044;52.386;13.278;2023-09-19T03:41:03;6.47;;;2.50;;
46322;SDS011;32044;52.386;13.278;2023-09-19T03:43:31;8.18;;;2.38;;
46322;SDS011;32044;52.386;13.278;2023-09-19T03:46:02;3.15;;;2.58;;
46322;SDS011;32044;52.386;13.278;2023-09-19T03:50:58;3.38;;;2.30;;
46322;SDS011;32044;52.386;13.278;2023-09-19T03:53:25;5.60;;;2.25;;
46322;SDS011;32044;52.386;13.278;2023-09-19T03:55:53;5.82;;;2.15;;
46322;SDS011;32044;52.386;13.278;2023-09-19T03:58:21;2.88;;;2.10;;
46322;SDS011;32044;52.386;13.278;2023-09-19T04:00:49;4.32;;;1.77;;
46322;SDS011;32044;52.386;13.278;2023-09-19T04:03:18;3.88;;;2.20;;
46322;SDS011;32044;52.386;13.278;2023-09-19T04:05:47;4.50;;;2.13;;
46322;SDS011;32044;52.386;13.278;2023-09-19T04:08:15;5.78;;;2.33;;
46322;SDS011;32044;52.386;13.278;2023-09-19T04:10:43;5.70;;;2.03;;
46322;SDS011;32044;52.386;13.278;2023-09-19T04:13:12;3.83;;;2.15;;
46322;SDS011;32044;52.386;13.278;2023-09-19T04:15:39;6.00;;;2.53;;
46322;SDS011;32044;52.386;13.278;2023-09-19T04:18:07;4.85;;;2.42;;
46322;SDS011;32044;52.386;13.278;2023-09-19T04:20:36;4.90;;;2.10;;
46322;SDS011;32044;52.386;13.278;2023-09-19T04:23:03;6.55;;;2.92;;
46322;SDS011;32044;52.386;13.278;2023-09-19T04:25:31;8.95;;;2.50;;
46322;SDS011;32044;52.386;13.278;2023-09-19T04:27:59;5.15;;;2.30;;
46322;SDS011;32044;52.386;13.278;2023-09-19T04:30:26;5.07;;;2.05;;
46322;SDS011;32044;52.386;13.278;2023-09-19T04:32:54;4.78;;;2.17;;
46322;SDS011;32044;52.386;13.278;2023-09-19T04:35:22;3.60;;;1.80;;
46322;SDS011;32044;52.386;13.278;2023-09-19T04:37:51;5.10;;;1.80;;
46322;SDS011;32044;52.386;13.278;2023-09-19T04:40:19;6.07;;;2.25;;
46322;SDS011;32044;52.386;13.278;2023-09-19T04:42:52;5.82;;;2.03;;
46322;SDS011;32044;52.386;13.278;2023-09-19T04:45:22;2.55;;;1.50;;
46322;SDS011;32044;52.386;13.278;2023-09-19T04:47:50;5.93;;;1.83;;
46322;SDS011;32044;52.386;13.278;2023-09-19T04:50:18;2.20;;;1.80;;
46322;SDS011;32044;52.386;13.278;2023-09-19T04:52:48;2.95;;;1.73;;
46322;SDS011;32044;52.386;13.278;2023-09-19T04:55:18;6.30;;;2.30;;
46322;SDS011;32044;52.386;13.278;2023-09-19T04:57:47;7.70;;;2.00;;
46322;SDS011;32044;52.386;13.278;2023-09-19T05:00:15;4.07;;;2.00;;
46322;SDS011;32044;52.386;13.278;2023-09-19T05:02:45;3.13;;;1.85;;
46322;SDS011;32044;52.386;13.278;2023-09-19T05:05:13;2.97;;;2.08;;
46322;SDS011;32044;52.386;13.278;2023-09-19T05:07:43;5.22;;;1.63;;
46322;SDS011;32044;52.386;13.278;2023-09-19T05:10:12;2.97;;;1.55;;
46322;SDS011;32044;52.386;13.278;2023-09-19T05:12:41;7.63;;;1.63;;
46322;SDS011;32044;52.386;13.278;2023-09-19T05:15:11;3.05;;;1.85;;
46322;SDS011;32044;52.386;13.278;2023-09-19T05:17:39;2.95;;;2.10;;
46322;SDS011;32044;52.386;13.278;2023-09-19T05:20:07;6.68;;;2.03;;
46322;SDS011;32044;52.386;13.278;2023-09-19T05:22:39;3.35;;;1.92;;
46322;SDS011;32044;52.386;13.278;2023-09-19T05:25:07;4.47;;;2.15;;
46322;SDS011;32044;52.386;13.278;2023-09-19T05:27:36;4.72;;;1.98;;
46322;SDS011;32044;52.386;13.278;2023-09-19T05:30:04;6.78;;;2.03;;
46322;SDS011;32044;52.386;13.278;2023-09-19T05:32:33;5.53;;;2.00;;
46322;SDS011;32044;52.386;13.278;2023-09-19T05:35:01;3.35;;;1.70;;
46322;SDS011;32044;52.386;13.278;2023-09-19T05:37:29;5.53;;;2.20;;
46322;SDS011;32044;52.386;13.278;2023-09-19T05:39:57;4.78;;;2.00;;
46322;SDS011;32044;52.386;13.278;2023-09-19T05:42:24;3.30;;;1.67;;
46322;SDS011;32044;52.386;13.278;2023-09-19T05:44:53;6.75;;;1.85;;
46322;SDS011;32044;52.386;13.278;2023-09-19T05:47:21;2.88;;;1.88;;
46322;SDS011;32044;52.386;13.278;2023-09-19T05:49:49;4.15;;;1.85;;
46322;SDS011;32044;52.386;13.278;2023-09-19T05:52:17;2.80;;;1.63;;
46322;SDS011;32044;52.386;13.278;2023-09-19T05:54:45;3.97;;;2.10;;
46322;SDS011;32044;52.386;13.278;2023-09-19T05:57:13;4.93;;;1.70;;
46322;SDS011;32044;52.386;13.278;2023-09-19T05:59:41;2.80;;;1.85;;
46322;SDS011;32044;52.386;13.278;2023-09-19T06:02:10;6.47;;;1.95;;
46322;SDS011;32044;52.386;13.278;2023-09-19T06:04:38;3.42;;;1.80;;
46322;SDS011;32044;52.386;13.278;2023-09-19T06:07:07;7.82;;;2.05;;
46322;SDS011;32044;52.386;13.278;2023-09-19T06:09:34;6.13;;;1.60;;
46322;SDS011;32044;52.386;13.278;2023-09-19T06:12:02;4.88;;;2.10;;
46322;SDS011;32044;52.386;13.278;2023-09-19T06:14:31;4.40;;;1.60;;
46322;SDS011;32044;52.386;13.278;2023-09-19T06:16:58;9.65;;;2.28;;
46322;SDS011;32044;52.386;13.278;2023-09-19T06:19:28;4.55;;;1.92;;
46322;SDS011;32044;52.386;13.278;2023-09-19T06:21:55;4.88;;;2.30;;
46322;SDS011;32044;52.386;13.278;2023-09-19T06:24:25;4.30;;;2.00;;
46322;SDS011;32044;52.386;13.278;2023-09-19T06:26:53;5.07;;;2.35;;
46322;SDS011;32044;52.386;13.278;2023-09-19T06:29:21;3.92;;;2.10;;
46322;SDS011;32044;52.386;13.278;2023-09-19T06:31:49;3.67;;;2.08;;
46322;SDS011;32044;52.386;13.278;2023-09-19T06:34:17;5.85;;;2.10;;
46322;SDS011;32044;52.386;13.278;2023-09-19T06:36:46;3.50;;;2.20;;
46322;SDS011;32044;52.386;13.278;2023-09-19T06:39:13;3.50;;;2.28;;
46322;SDS011;32044;52.386;13.278;2023-09-19T06:41:41;3.72;;;1.80;;
46322;SDS011;32044;52.386;13.278;2023-09-19T06:44:09;3.08;;;1.77;;
46322;SDS011;32044;52.386;13.278;2023-09-19T06:46:37;3.95;;;2.00;;
46322;SDS011;32044;52.386;13.278;2023-09-19T06:49:05;7.68;;;1.60;;
46322;SDS011;32044;52.386;13.278;2023-09-19T06:51:33;3.83;;;1.73;;
46322;SDS011;32044;52.386;13.278;2023-09-19T06:54:02;3.92;;;1.75;;
46322;SDS011;32044;52.386;13.278;2023-09-19T06:56:31;3.28;;;1.90;;
46322;SDS011;32044;52.386;13.278;2023-09-19T06:58:59;3.30;;;1.50;;
46322;SDS011;32044;52.386;13.278;2023-09-19T07:01:28;3.60;;;1.67;;
46322;SDS011;32044;52.386;13.278;2023-09-19T07:03:58;8.10;;;1.88;;
46322;SDS011;32044;52.386;13.278;2023-09-19T07:06:25;4.15;;;1.65;;
46322;SDS011;32044;52.386;13.278;2023-09-19T07:08:53;3.08;;;1.70;;
46322;SDS011;32044;52.386;13.278;2023-09-19T07:11:23;4.60;;;1.92;;
46322;SDS011;32044;52.386;13.278;2023-09-19T07:13:50;6.47;;;2.15;;
46322;SDS011;32044;52.386;13.278;2023-09-19T07:16:18;3.63;;;1.83;;
46322;SDS011;32044;52.386;13.278;2023-09-19T07:18:55;5.35;;;1.50;;
46322;SDS011;32044;52.386;13.278;2023-09-19T07:21:23;2.45;;;2.03;;
46322;SDS011;32044;52.386;13.278;2023-09-19T07:23:51;5.78;;;2.05;;
46322;SDS011;32044;52.386;13.278;2023-09-19T07:26:19;8.57;;;1.98;;
46322;SDS011;32044;52.386;13.278;2023-09-19T07:28:48;4.63;;;2.42;;
46322;SDS011;32044;52.386;13.278;2023-09-19T07:31:16;4.97;;;2.65;;
46322;SDS011;32044;52.386;13.278;2023-09-19T07:33:43;5.43;;;2.17;;
46322;SDS011;32044;52.386;13.278;2023-09-19T07:36:11;6.93;;;2.30;;
46322;SDS011;32044;52.386;13.278;2023-09-19T07:38:39;4.30;;;2.58;;
46322;SDS011;32044;52.386;13.278;2023-09-19T07:41:07;5.68;;;2.75;;
46322;SDS011;32044;52.386;13.278;2023-09-19T07:43:36;4.55;;;2.22;;
46322;SDS011;32044;52.386;13.278;2023-09-19T07:46:07;9.63;;;2.70;;
46322;SDS011;32044;52.386;13.278;2023-09-19T07:48:35;7.43;;;2.42;;
46322;SDS011;32044;52.386;13.278;2023-09-19T07:51:04;4.22;;;2.10;;
46322;SDS011;32044;52.386;13.278;2023-09-19T07:53:33;3.95;;;2.13;;
46322;SDS011;32044;52.386;13.278;2023-09-19T07:56:02;9.93;;;2.45;;
46322;SDS011;32044;52.386;13.278;2023-09-19T07:58:31;4.80;;;2.10;;
46322;SDS011;32044;52.386;13.278;2023-09-19T08:01:03;5.93;;;2.25;;
46322;SDS011;32044;52.386;13.278;2023-09-19T08:03:33;4.78;;;2.45;;
46322;SDS011;32044;52.386;13.278;2023-09-19T08:06:04;7.28;;;2.10;;
46322;SDS011;32044;52.386;13.278;2023-09-19T08:08:33;6.45;;;2.63;;
46322;SDS011;32044;52.386;13.278;2023-09-19T08:11:03;8.05;;;2.63;;
46322;SDS011;32044;52.386;13.278;2023-09-19T08:13:36;5.07;;;2.40;;
46322;SDS011;32044;52.386;13.278;2023-09-19T08:16:08;9.15;;;2.95;;
46322;SDS011;32044;52.386;13.278;2023-09-19T08:18:37;7.78;;;2.80;;
46322;SDS011;32044;52.386;13.278;2023-09-19T08:21:06;4.93;;;2.10;;
46322;SDS011;32044;52.386;13.278;2023-09-19T08:23:37;5.78;;;2.70;;
46322;SDS011;32044;52.386;13.278;2023-09-19T08:26:05;6.60;;;2.22;;
46322;SDS011;32044;52.386;13.278;2023-09-19T08:28:34;11.70;;;2.40;;
46322;SDS011;32044;52.386;13.278;2023-09-19T08:31:02;5.65;;;2.58;;
46322;SDS011;32044;52.386;13.278;2023-09-19T08:33:32;7.00;;;2.33;;
46322;SDS011;32044;52.386;13.278;2023-09-19T08:36:01;7.03;;;2.20;;
46322;SDS011;32044;52.386;13.278;2023-09-19T08:38:30;9.80;;;2.58;;
46322;SDS011;32044;52.386;13.278;2023-09-19T08:40:59;3.40;;;2.13;;
46322;SDS011;32044;52.386;13.278;2023-09-19T08:43:27;7.80;;;2.50;;
46322;SDS011;32044;52.386;13.278;2023-09-19T08:45:56;10.25;;;2.85;;
46322;SDS011;32044;52.386;13.278;2023-09-19T08:48:26;6.40;;;2.83;;
46322;SDS011;32044;52.386;13.278;2023-09-19T08:50:56;4.00;;;2.20;;
46322;SDS011;32044;52.386;13.278;2023-09-19T08:53:30;5.60;;;2.50;;
46322;SDS011;32044;52.386;13.278;2023-09-19T08:56:02;10.70;;;2.55;;
46322;SDS011;32044;52.386;13.278;2023-09-19T08:58:31;7.90;;;2.47;;
46322;SDS011;32044;52.386;13.278;2023-09-19T09:03:32;7.93;;;3.00;;
46322;SDS011;32044;52.386;13.278;2023-09-19T09:06:01;6.80;;;2.65;;
46322;SDS011;32044;52.386;13.278;2023-09-19T09:08:31;7.50;;;2.88;;
46322;SDS011;32044;52.386;13.278;2023-09-19T09:10:59;11.02;;;2.95;;
46322;SDS011;32044;52.386;13.278;2023-09-19T09:13:27;7.00;;;2.60;;
46322;SDS011;32044;52.386;13.278;2023-09-19T09:15:55;11.05;;;2.92;;
46322;SDS011;32044;52.386;13.278;2023-09-19T09:18:22;9.13;;;2.58;;
46322;SDS011;32044;52.386;13.278;2023-09-19T09:20:50;9.00;;;2.67;;
46322;SDS011;32044;52.386;13.278;2023-09-19T09:23:17;11.15;;;3.03;;
46322;SDS011;32044;52.386;13.278;2023-09-19T09:25:50;8.77;;;2.97;;
46322;SDS011;32044;52.386;13.278;2023-09-19T09:28:21;8.50;;;2.80;;
46322;SDS011;32044;52.386;13.278;2023-09-19T09:30:50;8.68;;;2.88;;
46322;SDS011;32044;52.386;13.278;2023-09-19T09:33:18;9.27;;;2.80;;
46322;SDS011;32044;52.386;13.278;2023-09-19T09:35:51;6.93;;;2.70;;
46322;SDS011;32044;52.386;13.278;2023-09-19T09:38:20;12.13;;;2.80;;
46322;SDS011;32044;52.386;13.278;2023-09-19T09:40:48;6.55;;;2.45;;
46322;SDS011;32044;52.386;13.278;2023-09-19T09:43:26;8.35;;;2.50;;
46322;SDS011;32044;52.386;13.278;2023-09-19T09:46:08;5.65;;;2.47;;
46322;SDS011;32044;52.386;13.278;2023-09-19T09:49:06;6.28;;;2.78;;
46322;SDS011;32044;52.386;13.278;2023-09-19T09:51:48;6.55;;;2.60;;
46322;SDS011;32044;52.386;13.278;2023-09-19T09:54:26;9.48;;;3.35;;
46322;SDS011;32044;52.386;13.278;2023-09-19T09:57:01;7.35;;;2.63;;
46322;SDS011;32044;52.386;13.278;2023-09-19T09:59:43;8.43;;;2.63;;
46322;SDS011;32044;52.386;13.278;2023-09-19T10:02:13;11.07;;;3.08;;
46322;SDS011;32044;52.386;13.278;2023-09-19T10:04:47;5.95;;;2.13;;
46322;SDS011;32044;52.386;13.278;2023-09-19T10:07:26;7.78;;;2.67;;
46322;SDS011;32044;52.386;13.278;2023-09-19T10:09:59;9.27;;;2.80;;
46322;SDS011;32044;52.386;13.278;2023-09-19T10:12:38;9.05;;;2.65;;
46322;SDS011;32044;52.386;13.278;2023-09-19T10:15:06;5.82;;;2.75;;
46322;SDS011;32044;52.386;13.278;2023-09-19T10:17:37;8.90;;;2.47;;
46322;SDS011;32044;52.386;13.278;2023-09-19T10:20:06;8.82;;;2.45;;
46322;SDS011;32044;52.386;13.278;2023-09-19T10:22:45;8.32;;;3.35;;
46322;SDS011;32044;52.386;13.278;2023-09-19T10:25:24;6.30;;;2.80;;
46322;SDS011;32044;52.386;13.278;2023-09-19T10:27:56;7.28;;;2.80;;
46322;SDS011;32044;52.386;13.278;2023-09-19T10:30:29;10.10;;;2.80;;
46322;SDS011;32044;52.386;13.278;2023-09-19T10:33:00;11.27;;;3.78;;
46322;SDS011;32044;52.386;13.278;2023-09-19T10:35:29;9.02;;;3.33;;
46322;SDS011;32044;52.386;13.278;2023-09-19T10:37:59;7.18;;;2.65;;
46322;SDS011;32044;52.386;13.278;2023-09-19T10:40:30;7.18;;;2.88;;
46322;SDS011;32044;52.386;13.278;2023-09-19T10:43:03;9.07;;;3.17;;
46322;SDS011;32044;52.386;13.278;2023-09-19T10:45:32;8.00;;;3.00;;
46322;SDS011;32044;52.386;13.278;2023-09-19T10:48:01;11.20;;;3.30;;
46322;SDS011;32044;52.386;13.278;2023-09-19T10:50:32;11.48;;;2.63;;
46322;SDS011;32044;52.386;13.278;2023-09-19T10:53:04;8.38;;;2.75;;
46322;SDS011;32044;52.386;13.278;2023-09-19T10:55:34;6.03;;;2.72;;
46322;SDS011;32044;52.386;13.278;2023-09-19T10:58:04;9.20;;;3.05;;
46322;SDS011;32044;52.386;13.278;2023-09-19T11:00:51;6.85;;;2.53;;
46322;SDS011;32044;52.386;13.278;2023-09-19T11:03:20;12.73;;;2.83;;
46322;SDS011;32044;52.386;13.278;2023-09-19T11:06:03;10.13;;;3.33;;
46322;SDS011;32044;52.386;13.278;2023-09-19T11:08:59;9.02;;;3.28;;
46322;SDS011;32044;52.386;13.278;2023-09-19T11:11:44;8.57;;;2.78;;
46322;SDS011;32044;52.386;13.278;2023-09-19T11:14:29;10.50;;;3.22;;
46322;SDS011;32044;52.386;13.278;2023-09-19T11:23:17;15.05;;;2.58;;
46322;SDS011;32044;52.386;13.278;2023-09-19T11:25:44;8.23;;;2.83;;
46322;SDS011;32044;52.386;13.278;2023-09-19T11:28:27;4.07;;;2.22;;
46322;SDS011;32044;52.386;13.278;2023-09-19T11:31:00;9.80;;;3.15;;
46322;SDS011;32044;52.386;13.278;2023-09-19T11:40:33;6.88;;;2.42;;
46322;SDS011;32044;52.386;13.278;2023-09-19T11:46:08;10.05;;;2.70;;
46322;SDS011;32044;52.386;13.278;2023-09-19T11:48:40;6.97;;;2.45;;
46322;SDS011;32044;52.386;13.278;2023-09-19T11:51:12;4.88;;;2.63;;
46322;SDS011;32044;52.386;13.278;2023-09-19T11:53:45;4.25;;;2.03;;
46322;SDS011;32044;52.386;13.278;2023-09-19T11:56:15;4.72;;;1.98;;
46322;SDS011;32044;52.386;13.278;2023-09-19T11:58:44;9.27;;;2.17;;
46322;SDS011;32044;52.386;13.278;2023-09-19T12:01:14;8.25;;;2.33;;
46322;SDS011;32044;52.386;13.278;2023-09-19T12:03:47;7.53;;;2.72;;
46322;SDS011;32044;52.386;13.278;2023-09-19T12:06:20;6.28;;;2.25;;
46322;SDS011;32044;52.386;13.278;2023-09-19T12:08:48;5.05;;;2.00;;
46322;SDS011;32044;52.386;13.278;2023-09-19T12:11:17;10.02;;;2.30;;
46322;SDS011;32044;52.386;13.278;2023-09-19T12:13:47;5.93;;;2.30;;
46322;SDS011;32044;52.386;13.278;2023-09-19T12:16:17;6.82;;;2.30;;
46322;SDS011;32044;52.386;13.278;2023-09-19T12:18:48;7.75;;;2.15;;
46322;SDS011;32044;52.386;13.278;2023-09-19T12:21:24;8.30;;;2.20;;
46322;SDS011;32044;52.386;13.278;2023-09-19T12:24:06;9.73;;;2.28;;
46322;SDS011;32044;52.386;13.278;2023-09-19T12:26:39;6.13;;;2.28;;
46322;SDS011;32044;52.386;13.278;2023-09-19T12:29:15;5.65;;;2.10;;
46322;SDS011;32044;52.386;13.278;2023-09-19T12:31:50;4.45;;;2.22;;
46322;SDS011;32044;52.386;13.278;2023-09-19T12:34:20;7.18;;;2.10;;
46322;SDS011;32044;52.386;13.278;2023-09-19T12:36:48;4.63;;;1.88;;
46322;SDS011;32044;52.386;13.278;2023-09-19T12:39:22;6.75;;;2.20;;
46322;SDS011;32044;52.386;13.278;2023-09-19T12:41:52;6.38;;;2.03;;
46322;SDS011;32044;52.386;13.278;2023-09-19T12:44:20;6.05;;;1.98;;
46322;SDS011;32044;52.386;13.278;2023-09-19T12:46:52;7.68;;;2.60;;
46322;SDS011;32044;52.386;13.278;2023-09-19T12:49:21;5.00;;;1.88;;
46322;SDS011;32044;52.386;13.278;2023-09-19T12:51:49;6.13;;;1.80;;
46322;SDS011;32044;52.386;13.278;2023-09-19T12:54:23;6.28;;;2.20;;
46322;SDS011;32044;52.386;13.278;2023-09-19T12:56:51;4.95;;;2.25;;
46322;SDS011;32044;52.386;13.278;2023-09-19T12:59:28;7.93;;;2.15;;
46322;SDS011;32044;52.386;13.278;2023-09-19T13:02:04;4.63;;;2.13;;
46322;SDS011;32044;52.386;13.278;2023-09-19T13:04:33;3.65;;;1.80;;
46322;SDS011;32044;52.386;13.278;2023-09-19T13:07:06;5.25;;;1.65;;
46322;SDS011;32044;52.386;13.278;2023-09-19T13:09:35;4.75;;;2.08;;
46322;SDS011;32044;52.386;13.278;2023-09-19T13:12:05;8.00;;;2.10;;
46322;SDS011;32044;52.386;13.278;2023-09-19T13:15:09;5.45;;;1.95;;
46322;SDS011;32044;52.386;13.278;2023-09-19T13:17:44;5.00;;;2.10;;
46322;SDS011;32044;52.386;13.278;2023-09-19T13:20:22;4.70;;;1.70;;
46322;SDS011;32044;52.386;13.278;2023-09-19T13:22:55;9.80;;;2.22;;
46322;SDS011;32044;52.386;13.278;2023-09-19T13:25:25;7.13;;;2.03;;
46322;SDS011;32044;52.386;13.278;2023-09-19T13:27:56;9.25;;;2.25;;
46322;SDS011;32044;52.386;13.278;2023-09-19T13:30:25;4.07;;;1.60;;
46322;SDS011;32044;52.386;13.278;2023-09-19T13:33:05;6.97;;;2.03;;
46322;SDS011;32044;52.386;13.278;2023-09-19T13:35:33;5.97;;;2.60;;
46322;SDS011;32044;52.386;13.278;2023-09-19T13:38:01;6.00;;;1.77;;
46322;SDS011;32044;52.386;13.278;2023-09-19T13:40:29;5.00;;;1.90;;
46322;SDS011;32044;52.386;13.278;2023-09-19T13:43:01;6.45;;;2.00;;
46322;SDS011;32044;52.386;13.278;2023-09-19T13:45:28;9.10;;;2.10;;
46322;SDS011;32044;52.386;13.278;2023-09-19T13:47:57;9.02;;;2.17;;
46322;SDS011;32044;52.386;13.278;2023-09-19T13:50:26;5.65;;;2.15;;
46322;SDS011;32044;52.386;13.278;2023-09-19T13:52:55;6.70;;;1.88;;
46322;SDS011;32044;52.386;13.278;2023-09-19T13:55:24;4.88;;;1.85;;
46322;SDS011;32044;52.386;13.278;2023-09-19T13:57:51;7.53;;;2.13;;
46322;SDS011;32044;52.386;13.278;2023-09-19T14:00:21;9.05;;;2.40;;
46322;SDS011;32044;52.386;13.278;2023-09-19T14:02:48;6.35;;;2.15;;
46322;SDS011;32044;52.386;13.278;2023-09-19T14:05:18;6.88;;;2.10;;
46322;SDS011;32044;52.386;13.278;2023-09-19T14:07:49;4.00;;;1.80;;
46322;SDS011;32044;52.386;13.278;2023-09-19T14:10:17;6.50;;;2.13;;
46322;SDS011;32044;52.386;13.278;2023-09-19T14:12:45;8.63;;;2.17;;
46322;SDS011;32044;52.386;13.278;2023-09-19T14:15:12;4.00;;;1.85;;
46322;SDS011;32044;52.386;13.278;2023-09-19T14:17:40;4.35;;;1.80;;
46322;SDS011;32044;52.386;13.278;2023-09-19T14:20:09;7.35;;;2.10;;
46322;SDS011;32044;52.386;13.278;2023-09-19T14:22:37;6.32;;;1.98;;
46322;SDS011;32044;52.386;13.278;2023-09-19T14:25:06;7.13;;;2.22;;
46322;SDS011;32044;52.386;13.278;2023-09-19T14:27:35;6.23;;;2.07;;
46322;SDS011;32044;52.386;13.278;2023-09-19T14:30:03;4.32;;;2.00;;
46322;SDS011;32044;52.386;13.278;2023-09-19T14:32:32;5.63;;;1.92;;
46322;SDS011;32044;52.386;13.278;2023-09-19T14:35:00;6.32;;;2.22;;
46322;SDS011;32044;52.386;13.278;2023-09-19T14:37:27;4.13;;;2.30;;
46322;SDS011;32044;52.386;13.278;2023-09-19T14:39:55;6.38;;;2.20;;
46322;SDS011;32044;52.386;13.278;2023-09-19T14:42:24;4.95;;;2.13;;
46322;SDS011;32044;52.386;13.278;2023-09-19T14:44:52;6.82;;;2.30;;
46322;SDS011;32044;52.386;13.278;2023-09-19T14:47:19;5.13;;;1.67;;
46322;SDS011;32044;52.386;13.278;2023-09-19T14:49:47;8.95;;;2.42;;
46322;SDS011;32044;52.386;13.278;2023-09-19T14:52:14;8.13;;;2.45;;
46322;SDS011;32044;52.386;13.278;2023-09-19T14:54:42;10.93;;;2.42;;
46322;SDS011;32044;52.386;13.278;2023-09-19T14:57:10;5.55;;;2.05;;
46322;SDS011;32044;52.386;13.278;2023-09-19T14:59:41;8.75;;;2.35;;
46322;SDS011;32044;52.386;13.278;2023-09-19T15:02:08;8.13;;;2.85;;
46322;SDS011;32044;52.386;13.278;2023-09-19T15:04:36;8.10;;;2.50;;
46322;SDS011;32044;52.386;13.278;2023-09-19T15:07:07;7.13;;;2.08;;
46322;SDS011;32044;52.386;13.278;2023-09-19T15:09:35;6.43;;;2.63;;
46322;SDS011;32044;52.386;13.278;2023-09-19T15:12:03;7.57;;;2.13;;